This demonstration page uses our WeatherBlox Daily Observations layout. Learn more.

Left ArrowRight Arrow

34.74481, -87.66753

Hourly Observations for June 26, 2020

Temp ( °F °C ) Dew Point ( °F °C ) Humidity (%) Winds ( mph kmh ) Pressure ( in mb ) Visibility ( mi km ) Precip ( " mm )
12:53 am 00:53 Clear N/A N/A N/A Calm N/A 10 16 0.00 0.00
1:53 am 01:53 Clear N/A N/A N/A S 3 6 N/A 10 16 0.00 0.00
2:53 am 02:53 Clear N/A N/A N/A SSE 6 9 N/A 10 16 0.00 0.00
3:53 am 03:53 Clear N/A N/A N/A SSE 3 6 N/A 10 16 0.00 0.00
4:53 am 04:53 Clear N/A N/A N/A S 5 7 N/A 10 16 0.00 0.00
5:53 am 05:53 Sunny N/A N/A N/A SE 3 6 N/A 10 16 0.00 0.00
6:53 am 06:53 Cloudy N/A N/A N/A SSE 5 7 N/A 10 16 0.00 0.00
7:53 am 07:53 Mostly Cloudy N/A N/A N/A SSW 6 9 N/A 10 16 0.00 0.00
8:04 am 08:04 Mostly Cloudy N/A N/A N/A S 8 13 N/A 10 16 0.00 0.00
8:53 am 08:53 Cloudy N/A N/A N/A SSW 8 13 N/A 10 16 0.00 0.00
9:20 am 09:20 Cloudy N/A N/A N/A SSW 10 17 N/A 10 16 0.00 0.00
9:53 am 09:53 Cloudy N/A N/A N/A SSW 10 17 N/A 10 16 0.00 0.00
10:45 am 10:45 Cloudy with Mist and Fog N/A N/A N/A WSW 7 11 N/A 3 5 0.00 0.00
10:53 am 10:53 Cloudy with Heavy Rain N/A N/A N/A SW 3 6 N/A 2 3 0.03 0.76
11:11 am 11:11 Cloudy with Heavy Rain N/A N/A N/A W 3 6 N/A 1 2 0.05 1.27
11:31 am 11:31 Cloudy with Heavy Rain N/A N/A N/A SW 6 9 N/A 1 1 0.26 6.60
11:53 am 11:53 Cloudy with Heavy Rain N/A N/A N/A VRB 5 7 N/A 1 1 0.57 14.48
11:55 am 11:55 Cloudy with Light Rain N/A N/A N/A SW 3 6 N/A 1 2 0.00 0.00
11:59 am 11:59 Cloudy with Light Rain N/A N/A N/A SSW 3 6 N/A 2 3 0.00 0.00
12:07 pm 12:07 Cloudy with Light Rain N/A N/A N/A SW 3 6 N/A 4 6 0.01 0.25
12:44 pm 12:44 Cloudy N/A N/A N/A SW 6 9 N/A 4 6 0.01 0.25
12:53 pm 12:53 Cloudy N/A N/A N/A SW 5 7 N/A 8 13 0.01 0.25
1:29 pm 13:29 Cloudy N/A N/A N/A WSW 8 13 N/A 10 16 0.00 0.00
1:53 pm 13:53 Cloudy N/A N/A N/A WSW 15 24 N/A 9 14 0.00 0.00
2:53 pm 14:53 Cloudy with Haze N/A N/A N/A WSW 13 20 N/A 6 10 0.00 0.00
3:53 pm 15:53 Cloudy N/A N/A N/A SW 8 13 N/A 9 14 0.00 0.00
4:16 pm 16:16 Cloudy N/A N/A N/A SSW 9 15 N/A 10 16 0.00 0.00
4:53 pm 16:53 Cloudy N/A N/A N/A SW 9 15 N/A 10 16 0.00 0.00
5:53 pm 17:53 Cloudy N/A N/A N/A WSW 9 15 N/A 5 8 0.00 0.00
6:53 pm 18:53 Sunny N/A N/A N/A WSW 6 9 N/A 7 11 0.01 0.25
7:53 pm 19:53 Mostly Cloudy N/A N/A N/A Calm N/A 8 13 0.00 0.00
8:53 pm 20:53 Clear N/A N/A N/A Calm N/A 9 14 0.00 0.00
9:53 pm 21:53 Mostly Cloudy N/A N/A N/A S 5 7 N/A 8 13 0.00 0.00
10:53 pm 22:53 Cloudy N/A N/A N/A S 5 7 N/A 9 14 0.00 0.00
11:53 pm 23:53 Mostly Cloudy N/A N/A N/A SSW 7 11 N/A 9 14 0.00 0.00

Powered by AerisWeather